sensor_id;sensor_type;location;lat;lon;timestamp;P1;durP1;ratioP1;P2;durP2;ratioP2
48845;SDS011;34665;51.886;5.436;2022-12-07T00:01:37;20.98;;;9.05;;
48845;SDS011;34665;51.886;5.436;2022-12-07T00:04:04;17.05;;;9.27;;
48845;SDS011;34665;51.886;5.436;2022-12-07T00:06:35;25.90;;;10.52;;
48845;SDS011;34665;51.886;5.436;2022-12-07T00:09:03;22.80;;;10.55;;
48845;SDS011;34665;51.886;5.436;2022-12-07T00:11:30;22.08;;;9.77;;
48845;SDS011;34665;51.886;5.436;2022-12-07T00:13:56;16.55;;;9.95;;
48845;SDS011;34665;51.886;5.436;2022-12-07T00:16:25;17.10;;;9.80;;
48845;SDS011;34665;51.886;5.436;2022-12-07T00:18:53;17.13;;;9.68;;
48845;SDS011;34665;51.886;5.436;2022-12-07T00:21:20;23.90;;;9.45;;
48845;SDS011;34665;51.886;5.436;2022-12-07T00:23:48;18.02;;;9.73;;
48845;SDS011;34665;51.886;5.436;2022-12-07T00:26:22;17.67;;;10.02;;
48845;SDS011;34665;51.886;5.436;2022-12-07T00:29:02;19.98;;;10.68;;
48845;SDS011;34665;51.886;5.436;2022-12-07T00:31:34;25.05;;;9.88;;
48845;SDS011;34665;51.886;5.436;2022-12-07T00:34:04;21.67;;;10.85;;
48845;SDS011;34665;51.886;5.436;2022-12-07T00:36:30;18.00;;;9.98;;
48845;SDS011;34665;51.886;5.436;2022-12-07T00:38:57;19.17;;;11.13;;
48845;SDS011;34665;51.886;5.436;2022-12-07T00:41:24;24.08;;;11.55;;
48845;SDS011;34665;51.886;5.436;2022-12-07T00:43:51;18.38;;;11.10;;
48845;SDS011;34665;51.886;5.436;2022-12-07T00:46:18;19.90;;;10.55;;
48845;SDS011;34665;51.886;5.436;2022-12-07T00:48:44;21.73;;;10.15;;
48845;SDS011;34665;51.886;5.436;2022-12-07T00:51:10;21.35;;;9.70;;
48845;SDS011;34665;51.886;5.436;2022-12-07T00:53:37;18.13;;;10.70;;
48845;SDS011;34665;51.886;5.436;2022-12-07T00:56:07;21.35;;;11.63;;
48845;SDS011;34665;51.886;5.436;2022-12-07T00:58:40;18.47;;;10.67;;
48845;SDS011;34665;51.886;5.436;2022-12-07T01:01:07;22.58;;;12.35;;
48845;SDS011;34665;51.886;5.436;2022-12-07T01:03:34;22.13;;;11.80;;
48845;SDS011;34665;51.886;5.436;2022-12-07T01:06:01;23.77;;;10.68;;
48845;SDS011;34665;51.886;5.436;2022-12-07T01:08:26;23.50;;;11.17;;
48845;SDS011;34665;51.886;5.436;2022-12-07T01:11:03;19.75;;;10.43;;
48845;SDS011;34665;51.886;5.436;2022-12-07T01:13:31;26.40;;;10.43;;
48845;SDS011;34665;51.886;5.436;2022-12-07T01:16:01;19.65;;;11.63;;
48845;SDS011;34665;51.886;5.436;2022-12-07T01:18:29;20.75;;;10.10;;
48845;SDS011;34665;51.886;5.436;2022-12-07T01:20:57;26.40;;;11.07;;
48845;SDS011;34665;51.886;5.436;2022-12-07T01:23:23;17.60;;;10.75;;
48845;SDS011;34665;51.886;5.436;2022-12-07T01:25:59;19.17;;;10.30;;
48845;SDS011;34665;51.886;5.436;2022-12-07T01:28:27;19.75;;;10.73;;
48845;SDS011;34665;51.886;5.436;2022-12-07T01:31:03;21.23;;;10.57;;
48845;SDS011;34665;51.886;5.436;2022-12-07T01:33:32;22.00;;;10.68;;
48845;SDS011;34665;51.886;5.436;2022-12-07T01:38:29;25.42;;;10.35;;
48845;SDS011;34665;51.886;5.436;2022-12-07T01:40:56;20.20;;;9.68;;
48845;SDS011;34665;51.886;5.436;2022-12-07T01:43:22;19.60;;;9.57;;
48845;SDS011;34665;51.886;5.436;2022-12-07T01:45:49;18.85;;;9.02;;
48845;SDS011;34665;51.886;5.436;2022-12-07T01:48:15;22.53;;;9.97;;
48845;SDS011;34665;51.886;5.436;2022-12-07T01:50:45;19.63;;;8.02;;
48845;SDS011;34665;51.886;5.436;2022-12-07T01:53:15;24.45;;;8.65;;
48845;SDS011;34665;51.886;5.436;2022-12-07T01:55:44;18.52;;;8.73;;
48845;SDS011;34665;51.886;5.436;2022-12-07T01:58:14;18.48;;;9.02;;
48845;SDS011;34665;51.886;5.436;2022-12-07T02:00:40;14.73;;;8.10;;
48845;SDS011;34665;51.886;5.436;2022-12-07T02:05:40;17.33;;;8.27;;
48845;SDS011;34665;51.886;5.436;2022-12-07T02:08:07;19.98;;;7.88;;
48845;SDS011;34665;51.886;5.436;2022-12-07T02:13:07;14.83;;;7.30;;
48845;SDS011;34665;51.886;5.436;2022-12-07T02:15:47;13.27;;;7.32;;
48845;SDS011;34665;51.886;5.436;2022-12-07T02:24:19;16.98;;;7.63;;
48845;SDS011;34665;51.886;5.436;2022-12-07T02:29:27;19.80;;;7.53;;
48845;SDS011;34665;51.886;5.436;2022-12-07T02:32:19;17.65;;;8.20;;
48845;SDS011;34665;51.886;5.436;2022-12-07T02:37:42;13.88;;;7.15;;
48845;SDS011;34665;51.886;5.436;2022-12-07T02:40:34;18.95;;;6.90;;
48845;SDS011;34665;51.886;5.436;2022-12-07T02:43:07;26.48;;;7.63;;
48845;SDS011;34665;51.886;5.436;2022-12-07T02:45:38;12.43;;;6.72;;
48845;SDS011;34665;51.886;5.436;2022-12-07T02:48:05;10.75;;;6.03;;
48845;SDS011;34665;51.886;5.436;2022-12-07T02:50:34;18.75;;;7.18;;
48845;SDS011;34665;51.886;5.436;2022-12-07T02:53:00;14.90;;;6.33;;
48845;SDS011;34665;51.886;5.436;2022-12-07T02:55:29;14.27;;;6.05;;
48845;SDS011;34665;51.886;5.436;2022-12-07T03:03:48;13.07;;;5.53;;
48845;SDS011;34665;51.886;5.436;2022-12-07T03:06:35;10.80;;;5.03;;
48845;SDS011;34665;51.886;5.436;2022-12-07T03:11:48;20.40;;;5.15;;
48845;SDS011;34665;51.886;5.436;2022-12-07T03:14:20;12.35;;;4.95;;
48845;SDS011;34665;51.886;5.436;2022-12-07T03:16:52;17.20;;;5.65;;
48845;SDS011;34665;51.886;5.436;2022-12-07T03:19:24;10.43;;;4.55;;
48845;SDS011;34665;51.886;5.436;2022-12-07T03:22:05;12.45;;;4.88;;
48845;SDS011;34665;51.886;5.436;2022-12-07T03:24:36;20.88;;;5.10;;
48845;SDS011;34665;51.886;5.436;2022-12-07T03:27:20;13.45;;;5.35;;
48845;SDS011;34665;51.886;5.436;2022-12-07T03:29:51;11.43;;;3.67;;
48845;SDS011;34665;51.886;5.436;2022-12-07T03:32:25;14.35;;;4.35;;
48845;SDS011;34665;51.886;5.436;2022-12-07T03:34:58;8.90;;;3.88;;
48845;SDS011;34665;51.886;5.436;2022-12-07T03:37:32;9.00;;;4.55;;
48845;SDS011;34665;51.886;5.436;2022-12-07T03:40:03;8.32;;;3.65;;
48845;SDS011;34665;51.886;5.436;2022-12-07T03:42:31;17.40;;;4.45;;
48845;SDS011;34665;51.886;5.436;2022-12-07T03:44:58;7.75;;;4.18;;
48845;SDS011;34665;51.886;5.436;2022-12-07T03:49:59;11.40;;;4.55;;
48845;SDS011;34665;51.886;5.436;2022-12-07T03:52:36;9.27;;;3.53;;
48845;SDS011;34665;51.886;5.436;2022-12-07T03:55:19;7.68;;;3.67;;
48845;SDS011;34665;51.886;5.436;2022-12-07T03:57:51;10.68;;;3.20;;
48845;SDS011;34665;51.886;5.436;2022-12-07T04:00:20;11.27;;;4.20;;
48845;SDS011;34665;51.886;5.436;2022-12-07T04:02:47;11.90;;;3.83;;
48845;SDS011;34665;51.886;5.436;2022-12-07T04:05:17;11.15;;;3.33;;
48845;SDS011;34665;51.886;5.436;2022-12-07T04:07:42;12.25;;;3.88;;
48845;SDS011;34665;51.886;5.436;2022-12-07T04:10:08;7.90;;;3.20;;
48845;SDS011;34665;51.886;5.436;2022-12-07T04:12:34;12.60;;;4.80;;
48845;SDS011;34665;51.886;5.436;2022-12-07T04:14:59;23.93;;;3.90;;
48845;SDS011;34665;51.886;5.436;2022-12-07T04:17:25;8.52;;;3.28;;
48845;SDS011;34665;51.886;5.436;2022-12-07T04:19:51;10.13;;;4.27;;
48845;SDS011;34665;51.886;5.436;2022-12-07T04:22:16;10.30;;;2.90;;
48845;SDS011;34665;51.886;5.436;2022-12-07T04:24:42;12.73;;;3.03;;
48845;SDS011;34665;51.886;5.436;2022-12-07T04:27:07;7.03;;;3.80;;
48845;SDS011;34665;51.886;5.436;2022-12-07T04:29:33;15.87;;;3.17;;
48845;SDS011;34665;51.886;5.436;2022-12-07T04:31:58;14.83;;;3.27;;
48845;SDS011;34665;51.886;5.436;2022-12-07T04:34:24;10.90;;;3.00;;
48845;SDS011;34665;51.886;5.436;2022-12-07T04:36:49;9.90;;;2.88;;
48845;SDS011;34665;51.886;5.436;2022-12-07T04:39:25;12.70;;;2.60;;
48845;SDS011;34665;51.886;5.436;2022-12-07T04:41:53;11.50;;;2.30;;
48845;SDS011;34665;51.886;5.436;2022-12-07T04:44:19;9.68;;;2.42;;
48845;SDS011;34665;51.886;5.436;2022-12-07T04:46:46;8.68;;;2.63;;
48845;SDS011;34665;51.886;5.436;2022-12-07T04:49:12;11.88;;;3.60;;
48845;SDS011;34665;51.886;5.436;2022-12-07T04:51:39;13.55;;;2.40;;
48845;SDS011;34665;51.886;5.436;2022-12-07T04:54:05;9.85;;;2.70;;
48845;SDS011;34665;51.886;5.436;2022-12-07T04:56:30;8.33;;;2.20;;
48845;SDS011;34665;51.886;5.436;2022-12-07T04:58:56;9.15;;;2.00;;
48845;SDS011;34665;51.886;5.436;2022-12-07T05:01:22;8.10;;;2.00;;
48845;SDS011;34665;51.886;5.436;2022-12-07T05:03:49;8.38;;;2.10;;
48845;SDS011;34665;51.886;5.436;2022-12-07T05:06:16;7.30;;;2.33;;
48845;SDS011;34665;51.886;5.436;2022-12-07T05:08:42;8.57;;;2.80;;
48845;SDS011;34665;51.886;5.436;2022-12-07T05:11:09;7.78;;;1.92;;
48845;SDS011;34665;51.886;5.436;2022-12-07T05:13:56;11.30;;;2.28;;
48845;SDS011;34665;51.886;5.436;2022-12-07T05:16:22;12.10;;;2.28;;
48845;SDS011;34665;51.886;5.436;2022-12-07T05:18:47;10.77;;;2.37;;
48845;SDS011;34665;51.886;5.436;2022-12-07T05:21:13;6.05;;;1.92;;
48845;SDS011;34665;51.886;5.436;2022-12-07T05:23:38;11.17;;;2.03;;
48845;SDS011;34665;51.886;5.436;2022-12-07T05:26:04;14.63;;;2.03;;
48845;SDS011;34665;51.886;5.436;2022-12-07T05:28:29;6.43;;;2.13;;
48845;SDS011;34665;51.886;5.436;2022-12-07T05:30:55;12.23;;;2.30;;
48845;SDS011;34665;51.886;5.436;2022-12-07T05:33:20;7.07;;;2.07;;
48845;SDS011;34665;51.886;5.436;2022-12-07T05:35:46;5.72;;;1.60;;
48845;SDS011;34665;51.886;5.436;2022-12-07T05:38:12;6.27;;;2.17;;
48845;SDS011;34665;51.886;5.436;2022-12-07T05:40:37;5.80;;;2.03;;
48845;SDS011;34665;51.886;5.436;2022-12-07T05:43:03;11.55;;;2.65;;
48845;SDS011;34665;51.886;5.436;2022-12-07T05:45:28;14.43;;;3.00;;
48845;SDS011;34665;51.886;5.436;2022-12-07T05:47:54;15.30;;;2.80;;
48845;SDS011;34665;51.886;5.436;2022-12-07T05:50:19;7.23;;;2.53;;
48845;SDS011;34665;51.886;5.436;2022-12-07T05:52:58;8.57;;;2.40;;
48845;SDS011;34665;51.886;5.436;2022-12-07T05:55:24;11.10;;;2.72;;
48845;SDS011;34665;51.886;5.436;2022-12-07T05:57:50;9.90;;;2.13;;
48845;SDS011;34665;51.886;5.436;2022-12-07T06:00:34;8.13;;;2.92;;
48845;SDS011;34665;51.886;5.436;2022-12-07T06:03:00;16.75;;;3.13;;
48845;SDS011;34665;51.886;5.436;2022-12-07T06:05:25;13.63;;;4.70;;
48845;SDS011;34665;51.886;5.436;2022-12-07T06:07:50;12.93;;;2.80;;
48845;SDS011;34665;51.886;5.436;2022-12-07T06:10:16;8.03;;;3.17;;
48845;SDS011;34665;51.886;5.436;2022-12-07T06:12:42;9.85;;;2.50;;
48845;SDS011;34665;51.886;5.436;2022-12-07T06:15:09;9.77;;;2.60;;
48845;SDS011;34665;51.886;5.436;2022-12-07T06:17:35;8.43;;;2.05;;
48845;SDS011;34665;51.886;5.436;2022-12-07T06:20:01;21.55;;;2.97;;
48845;SDS011;34665;51.886;5.436;2022-12-07T06:22:27;16.45;;;2.47;;
48845;SDS011;34665;51.886;5.436;2022-12-07T06:24:53;10.73;;;3.70;;
48845;SDS011;34665;51.886;5.436;2022-12-07T06:27:18;10.70;;;2.90;;
48845;SDS011;34665;51.886;5.436;2022-12-07T06:29:44;13.83;;;3.17;;
48845;SDS011;34665;51.886;5.436;2022-12-07T06:32:09;10.47;;;2.50;;
48845;SDS011;34665;51.886;5.436;2022-12-07T06:34:35;12.65;;;2.25;;
48845;SDS011;34665;51.886;5.436;2022-12-07T06:37:00;11.67;;;2.57;;
48845;SDS011;34665;51.886;5.436;2022-12-07T06:39:26;15.32;;;3.05;;
48845;SDS011;34665;51.886;5.436;2022-12-07T06:41:53;18.85;;;2.67;;
48845;SDS011;34665;51.886;5.436;2022-12-07T06:44:19;11.95;;;2.50;;
48845;SDS011;34665;51.886;5.436;2022-12-07T06:49:11;6.87;;;2.17;;
48845;SDS011;34665;51.886;5.436;2022-12-07T06:51:37;13.50;;;3.08;;
48845;SDS011;34665;51.886;5.436;2022-12-07T06:54:06;9.52;;;2.58;;
48845;SDS011;34665;51.886;5.436;2022-12-07T06:56:42;8.18;;;2.25;;
48845;SDS011;34665;51.886;5.436;2022-12-07T06:59:08;8.38;;;3.08;;
48845;SDS011;34665;51.886;5.436;2022-12-07T07:01:34;16.10;;;3.03;;
48845;SDS011;34665;51.886;5.436;2022-12-07T07:04:00;11.25;;;2.85;;
48845;SDS011;34665;51.886;5.436;2022-12-07T07:06:27;12.65;;;2.92;;
48845;SDS011;34665;51.886;5.436;2022-12-07T07:08:52;12.15;;;2.78;;
48845;SDS011;34665;51.886;5.436;2022-12-07T07:11:18;8.23;;;2.00;;
48845;SDS011;34665;51.886;5.436;2022-12-07T07:13:44;12.60;;;2.67;;
48845;SDS011;34665;51.886;5.436;2022-12-07T07:16:10;5.18;;;2.28;;
48845;SDS011;34665;51.886;5.436;2022-12-07T07:18:36;17.55;;;2.45;;
48845;SDS011;34665;51.886;5.436;2022-12-07T07:21:01;7.30;;;2.20;;
48845;SDS011;34665;51.886;5.436;2022-12-07T07:23:27;7.47;;;1.83;;
48845;SDS011;34665;51.886;5.436;2022-12-07T07:25:52;11.83;;;3.67;;
48845;SDS011;34665;51.886;5.436;2022-12-07T07:28:18;11.65;;;2.47;;
48845;SDS011;34665;51.886;5.436;2022-12-07T07:30:43;22.50;;;3.07;;
48845;SDS011;34665;51.886;5.436;2022-12-07T07:33:09;4.47;;;1.98;;
48845;SDS011;34665;51.886;5.436;2022-12-07T07:35:36;8.60;;;2.70;;
48845;SDS011;34665;51.886;5.436;2022-12-07T07:38:01;15.97;;;2.30;;
48845;SDS011;34665;51.886;5.436;2022-12-07T07:40:28;14.05;;;3.55;;
48845;SDS011;34665;51.886;5.436;2022-12-07T07:42:54;12.85;;;3.20;;
48845;SDS011;34665;51.886;5.436;2022-12-07T07:45:21;7.97;;;2.65;;
48845;SDS011;34665;51.886;5.436;2022-12-07T07:47:48;14.82;;;2.97;;
48845;SDS011;34665;51.886;5.436;2022-12-07T07:50:13;8.90;;;2.35;;
48845;SDS011;34665;51.886;5.436;2022-12-07T07:52:40;12.50;;;3.30;;
48845;SDS011;34665;51.886;5.436;2022-12-07T07:55:06;10.13;;;2.50;;
48845;SDS011;34665;51.886;5.436;2022-12-07T07:57:37;11.43;;;2.70;;
48845;SDS011;34665;51.886;5.436;2022-12-07T08:00:05;12.35;;;2.63;;
48845;SDS011;34665;51.886;5.436;2022-12-07T08:02:38;16.77;;;2.75;;
48845;SDS011;34665;51.886;5.436;2022-12-07T08:05:03;11.88;;;3.08;;
48845;SDS011;34665;51.886;5.436;2022-12-07T08:07:29;17.55;;;2.95;;
48845;SDS011;34665;51.886;5.436;2022-12-07T08:09:55;11.40;;;2.80;;
48845;SDS011;34665;51.886;5.436;2022-12-07T08:12:20;8.60;;;2.73;;
48845;SDS011;34665;51.886;5.436;2022-12-07T08:14:46;9.80;;;2.40;;
48845;SDS011;34665;51.886;5.436;2022-12-07T08:17:13;11.00;;;2.17;;
48845;SDS011;34665;51.886;5.436;2022-12-07T08:19:38;13.30;;;2.37;;
48845;SDS011;34665;51.886;5.436;2022-12-07T08:22:04;12.17;;;2.80;;
48845;SDS011;34665;51.886;5.436;2022-12-07T08:24:29;12.33;;;3.03;;
48845;SDS011;34665;51.886;5.436;2022-12-07T08:26:55;9.83;;;2.93;;
48845;SDS011;34665;51.886;5.436;2022-12-07T08:29:20;11.80;;;2.73;;
48845;SDS011;34665;51.886;5.436;2022-12-07T08:31:46;11.65;;;3.45;;
48845;SDS011;34665;51.886;5.436;2022-12-07T08:34:12;10.98;;;2.63;;
48845;SDS011;34665;51.886;5.436;2022-12-07T08:36:38;12.57;;;3.05;;
48845;SDS011;34665;51.886;5.436;2022-12-07T08:39:05;14.88;;;3.25;;
48845;SDS011;34665;51.886;5.436;2022-12-07T08:41:30;11.43;;;2.78;;
48845;SDS011;34665;51.886;5.436;2022-12-07T08:43:56;12.53;;;3.40;;
48845;SDS011;34665;51.886;5.436;2022-12-07T08:46:26;5.45;;;2.75;;
48845;SDS011;34665;51.886;5.436;2022-12-07T08:49:03;4.68;;;2.03;;
48845;SDS011;34665;51.886;5.436;2022-12-07T08:51:34;12.18;;;2.67;;
48845;SDS011;34665;51.886;5.436;2022-12-07T08:54:01;12.02;;;3.17;;
48845;SDS011;34665;51.886;5.436;2022-12-07T08:56:31;9.65;;;2.90;;
48845;SDS011;34665;51.886;5.436;2022-12-07T08:58:57;13.75;;;5.13;;
48845;SDS011;34665;51.886;5.436;2022-12-07T09:01:23;11.67;;;2.90;;
48845;SDS011;34665;51.886;5.436;2022-12-07T09:03:48;10.60;;;3.47;;
48845;SDS011;34665;51.886;5.436;2022-12-07T09:06:14;14.77;;;3.72;;
48845;SDS011;34665;51.886;5.436;2022-12-07T09:08:41;9.13;;;2.73;;
48845;SDS011;34665;51.886;5.436;2022-12-07T09:11:10;6.65;;;2.28;;
48845;SDS011;34665;51.886;5.436;2022-12-07T09:13:36;10.80;;;2.10;;
48845;SDS011;34665;51.886;5.436;2022-12-07T09:16:02;11.18;;;2.47;;
48845;SDS011;34665;51.886;5.436;2022-12-07T09:18:27;18.23;;;2.80;;
48845;SDS011;34665;51.886;5.436;2022-12-07T09:20:53;8.83;;;2.43;;
48845;SDS011;34665;51.886;5.436;2022-12-07T09:23:18;11.40;;;2.57;;
48845;SDS011;34665;51.886;5.436;2022-12-07T09:25:44;15.60;;;3.40;;
48845;SDS011;34665;51.886;5.436;2022-12-07T09:28:09;14.80;;;2.10;;
48845;SDS011;34665;51.886;5.436;2022-12-07T09:30:35;7.60;;;1.77;;
48845;SDS011;34665;51.886;5.436;2022-12-07T09:33:00;10.53;;;1.83;;
48845;SDS011;34665;51.886;5.436;2022-12-07T09:35:26;11.70;;;2.20;;
48845;SDS011;34665;51.886;5.436;2022-12-07T09:37:52;12.98;;;2.20;;
48845;SDS011;34665;51.886;5.436;2022-12-07T09:40:19;7.22;;;2.58;;
48845;SDS011;34665;51.886;5.436;2022-12-07T09:42:51;10.25;;;2.58;;
48845;SDS011;34665;51.886;5.436;2022-12-07T09:45:21;17.73;;;3.17;;
48845;SDS011;34665;51.886;5.436;2022-12-07T09:47:48;9.95;;;2.80;;
48845;SDS011;34665;51.886;5.436;2022-12-07T09:50:16;9.85;;;2.63;;
48845;SDS011;34665;51.886;5.436;2022-12-07T09:52:45;13.48;;;2.55;;
48845;SDS011;34665;51.886;5.436;2022-12-07T09:55:13;15.88;;;2.80;;
48845;SDS011;34665;51.886;5.436;2022-12-07T09:57:46;10.30;;;3.13;;
48845;SDS011;34665;51.886;5.436;2022-12-07T10:00:13;13.48;;;2.75;;
48845;SDS011;34665;51.886;5.436;2022-12-07T10:05:26;13.00;;;3.08;;
48845;SDS011;34665;51.886;5.436;2022-12-07T10:07:55;11.98;;;2.65;;
48845;SDS011;34665;51.886;5.436;2022-12-07T10:10:25;9.40;;;2.45;;
48845;SDS011;34665;51.886;5.436;2022-12-07T10:12:57;13.85;;;2.72;;
48845;SDS011;34665;51.886;5.436;2022-12-07T10:15:42;12.30;;;3.10;;
48845;SDS011;34665;51.886;5.436;2022-12-07T10:21:01;8.57;;;1.90;;
48845;SDS011;34665;51.886;5.436;2022-12-07T10:23:27;25.13;;;3.22;;
48845;SDS011;34665;51.886;5.436;2022-12-07T10:25:53;10.60;;;2.70;;
48845;SDS011;34665;51.886;5.436;2022-12-07T10:28:20;14.57;;;2.83;;
48845;SDS011;34665;51.886;5.436;2022-12-07T10:30:54;15.43;;;2.70;;
48845;SDS011;34665;51.886;5.436;2022-12-07T10:33:27;5.73;;;2.03;;
48845;SDS011;34665;51.886;5.436;2022-12-07T10:35:55;8.17;;;1.90;;
48845;SDS011;34665;51.886;5.436;2022-12-07T10:38:26;8.10;;;2.35;;
48845;SDS011;34665;51.886;5.436;2022-12-07T10:41:05;10.33;;;2.03;;
48845;SDS011;34665;51.886;5.436;2022-12-07T10:43:32;6.27;;;2.27;;
48845;SDS011;34665;51.886;5.436;2022-12-07T10:48:52;9.03;;;2.20;;
48845;SDS011;34665;51.886;5.436;2022-12-07T10:54:39;12.00;;;2.50;;
48845;SDS011;34665;51.886;5.436;2022-12-07T10:57:22;7.93;;;2.13;;
48845;SDS011;34665;51.886;5.436;2022-12-07T11:00:03;8.77;;;2.67;;
48845;SDS011;34665;51.886;5.436;2022-12-07T11:02:39;7.37;;;2.10;;
48845;SDS011;34665;51.886;5.436;2022-12-07T11:10:52;12.57;;;2.20;;
48845;SDS011;34665;51.886;5.436;2022-12-07T11:13:37;5.53;;;1.63;;
48845;SDS011;34665;51.886;5.436;2022-12-07T11:16:34;9.07;;;1.70;;
48845;SDS011;34665;51.886;5.436;2022-12-07T11:24:55;7.87;;;1.70;;
48845;SDS011;34665;51.886;5.436;2022-12-07T11:30:19;5.63;;;1.27;;
48845;SDS011;34665;51.886;5.436;2022-12-07T11:32:51;7.50;;;1.55;;
48845;SDS011;34665;51.886;5.436;2022-12-07T11:35:31;8.33;;;1.10;;
48845;SDS011;34665;51.886;5.436;2022-12-07T11:38:22;9.33;;;1.33;;
48845;SDS011;34665;51.886;5.436;2022-12-07T11:40:55;10.60;;;1.90;;
48845;SDS011;34665;51.886;5.436;2022-12-07T11:43:39;8.83;;;2.23;;
48845;SDS011;34665;51.886;5.436;2022-12-07T11:46:16;8.83;;;1.50;;
48845;SDS011;34665;51.886;5.436;2022-12-07T11:48:58;5.40;;;1.88;;
48845;SDS011;34665;51.886;5.436;2022-12-07T11:51:34;7.93;;;1.63;;
48845;SDS011;34665;51.886;5.436;2022-12-07T11:54:05;5.60;;;1.27;;
48845;SDS011;34665;51.886;5.436;2022-12-07T11:56:36;5.30;;;1.00;;
48845;SDS011;34665;51.886;5.436;2022-12-07T12:06:35;4.27;;;1.30;;
48845;SDS011;34665;51.886;5.436;2022-12-07T12:09:06;4.50;;;1.63;;
48845;SDS011;34665;51.886;5.436;2022-12-07T12:17:09;13.00;;;2.83;;
48845;SDS011;34665;51.886;5.436;2022-12-07T12:19:58;11.20;;;2.77;;
48845;SDS011;34665;51.886;5.436;2022-12-07T12:22:32;4.70;;;1.90;;
48845;SDS011;34665;51.886;5.436;2022-12-07T12:25:04;8.63;;;1.93;;
48845;SDS011;34665;51.886;5.436;2022-12-07T12:27:33;9.40;;;1.83;;
48845;SDS011;34665;51.886;5.436;2022-12-07T12:30:03;10.50;;;1.87;;
48845;SDS011;34665;51.886;5.436;2022-12-07T12:32:44;8.03;;;2.40;;
48845;SDS011;34665;51.886;5.436;2022-12-07T12:35:52;5.77;;;2.23;;
48845;SDS011;34665;51.886;5.436;2022-12-07T12:40:50;5.67;;;1.30;;
48845;SDS011;34665;51.886;5.436;2022-12-07T12:54:25;6.10;;;1.70;;
48845;SDS011;34665;51.886;5.436;2022-12-07T12:59:41;4.13;;;1.13;;
48845;SDS011;34665;51.886;5.436;2022-12-07T13:02:25;4.57;;;1.43;;
48845;SDS011;34665;51.886;5.436;2022-12-07T13:13:00;5.73;;;1.33;;
48845;SDS011;34665;51.886;5.436;2022-12-07T13:15:52;5.30;;;1.50;;
48845;SDS011;34665;51.886;5.436;2022-12-07T13:26:19;5.23;;;1.33;;
48845;SDS011;34665;51.886;5.436;2022-12-07T13:29:06;4.63;;;1.27;;
48845;SDS011;34665;51.886;5.436;2022-12-07T13:31:40;5.80;;;1.93;;
48845;SDS011;34665;51.886;5.436;2022-12-07T13:36:53;7.17;;;1.47;;
48845;SDS011;34665;51.886;5.436;2022-12-07T13:39:20;9.95;;;2.03;;
48845;SDS011;34665;51.886;5.436;2022-12-07T13:41:52;9.10;;;1.37;;
48845;SDS011;34665;51.886;5.436;2022-12-07T13:44:20;6.57;;;1.93;;
48845;SDS011;34665;51.886;5.436;2022-12-07T13:49:36;7.33;;;2.17;;
48845;SDS011;34665;51.886;5.436;2022-12-07T13:52:22;11.90;;;2.43;;
48845;SDS011;34665;51.886;5.436;2022-12-07T13:54:54;10.70;;;2.23;;
48845;SDS011;34665;51.886;5.436;2022-12-07T13:57:29;6.60;;;2.23;;
48845;SDS011;34665;51.886;5.436;2022-12-07T13:59:57;7.07;;;2.40;;
48845;SDS011;34665;51.886;5.436;2022-12-07T14:04:49;7.40;;;1.80;;
48845;SDS011;34665;51.886;5.436;2022-12-07T14:07:27;9.43;;;1.60;;
48845;SDS011;34665;51.886;5.436;2022-12-07T14:12:24;8.07;;;2.03;;
48845;SDS011;34665;51.886;5.436;2022-12-07T14:14:50;5.43;;;1.10;;
48845;SDS011;34665;51.886;5.436;2022-12-07T14:17:17;4.20;;;1.60;;
48845;SDS011;34665;51.886;5.436;2022-12-07T14:19:52;8.37;;;1.53;;
48845;SDS011;34665;51.886;5.436;2022-12-07T14:22:23;6.50;;;1.27;;
48845;SDS011;34665;51.886;5.436;2022-12-07T14:25:01;4.27;;;1.23;;
48845;SDS011;34665;51.886;5.436;2022-12-07T14:27:32;5.50;;;1.30;;
48845;SDS011;34665;51.886;5.436;2022-12-07T14:30:01;4.97;;;1.00;;
48845;SDS011;34665;51.886;5.436;2022-12-07T14:32:27;7.35;;;1.10;;
48845;SDS011;34665;51.886;5.436;2022-12-07T14:35:11;4.83;;;0.83;;
48845;SDS011;34665;51.886;5.436;2022-12-07T14:37:38;3.77;;;1.47;;
48845;SDS011;34665;51.886;5.436;2022-12-07T14:40:04;5.73;;;1.00;;
48845;SDS011;34665;51.886;5.436;2022-12-07T14:42:31;5.57;;;0.80;;
48845;SDS011;34665;51.886;5.436;2022-12-07T14:44:58;11.17;;;1.90;;
48845;SDS011;34665;51.886;5.436;2022-12-07T14:47:24;1.87;;;0.90;;
48845;SDS011;34665;51.886;5.436;2022-12-07T14:49:51;5.33;;;1.40;;
48845;SDS011;34665;51.886;5.436;2022-12-07T14:52:21;3.07;;;0.77;;
48845;SDS011;34665;51.886;5.436;2022-12-07T14:54:49;3.08;;;0.85;;
48845;SDS011;34665;51.886;5.436;2022-12-07T14:57:15;2.53;;;0.87;;
48845;SDS011;34665;51.886;5.436;2022-12-07T14:59:41;3.33;;;0.90;;
48845;SDS011;34665;51.886;5.436;2022-12-07T15:02:06;2.67;;;1.17;;
48845;SDS011;34665;51.886;5.436;2022-12-07T15:04:35;3.70;;;1.05;;
48845;SDS011;34665;51.886;5.436;2022-12-07T15:07:02;2.97;;;1.20;;
48845;SDS011;34665;51.886;5.436;2022-12-07T15:09:29;2.30;;;1.27;;
48845;SDS011;34665;51.886;5.436;2022-12-07T15:11:55;6.20;;;1.43;;
48845;SDS011;34665;51.886;5.436;2022-12-07T15:14:20;5.37;;;1.47;;
48845;SDS011;34665;51.886;5.436;2022-12-07T15:16:46;4.10;;;1.40;;
48845;SDS011;34665;51.886;5.436;2022-12-07T15:19:13;4.00;;;1.80;;
48845;SDS011;34665;51.886;5.436;2022-12-07T15:21:40;4.88;;;1.48;;
48845;SDS011;34665;51.886;5.436;2022-12-07T15:24:07;1.90;;;1.00;;
48845;SDS011;34665;51.886;5.436;2022-12-07T15:26:33;4.88;;;1.13;;
48845;SDS011;34665;51.886;5.436;2022-12-07T15:28:59;3.27;;;1.30;;
48845;SDS011;34665;51.886;5.436;2022-12-07T15:31:24;9.40;;;2.30;;
48845;SDS011;34665;51.886;5.436;2022-12-07T15:33:50;5.30;;;1.70;;
48845;SDS011;34665;51.886;5.436;2022-12-07T15:36:18;5.57;;;1.83;;
48845;SDS011;34665;51.886;5.436;2022-12-07T15:38:45;5.72;;;2.60;;
48845;SDS011;34665;51.886;5.436;2022-12-07T15:41:11;4.17;;;1.63;;
48845;SDS011;34665;51.886;5.436;2022-12-07T15:43:36;6.23;;;1.80;;
48845;SDS011;34665;51.886;5.436;2022-12-07T15:46:20;3.88;;;2.20;;
48845;SDS011;34665;51.886;5.436;2022-12-07T15:48:46;3.63;;;1.27;;
48845;SDS011;34665;51.886;5.436;2022-12-07T15:51:12;2.17;;;1.33;;
48845;SDS011;34665;51.886;5.436;2022-12-07T15:53:37;3.20;;;1.63;;
48845;SDS011;34665;51.886;5.436;2022-12-07T15:56:06;8.32;;;2.28;;
48845;SDS011;34665;51.886;5.436;2022-12-07T15:58:32;6.40;;;2.47;;
48845;SDS011;34665;51.886;5.436;2022-12-07T16:00:57;4.63;;;2.30;;
48845;SDS011;34665;51.886;5.436;2022-12-07T16:03:23;5.03;;;2.10;;
48845;SDS011;34665;51.886;5.436;2022-12-07T16:05:51;7.57;;;2.70;;
48845;SDS011;34665;51.886;5.436;2022-12-07T16:08:18;6.65;;;2.20;;
48845;SDS011;34665;51.886;5.436;2022-12-07T16:10:44;4.50;;;2.47;;
48845;SDS011;34665;51.886;5.436;2022-12-07T16:13:10;12.53;;;2.00;;
48845;SDS011;34665;51.886;5.436;2022-12-07T16:15:39;7.75;;;2.40;;
48845;SDS011;34665;51.886;5.436;2022-12-07T16:18:05;9.52;;;3.40;;
48845;SDS011;34665;51.886;5.436;2022-12-07T16:20:31;8.57;;;2.70;;
48845;SDS011;34665;51.886;5.436;2022-12-07T16:22:56;10.63;;;3.03;;
48845;SDS011;34665;51.886;5.436;2022-12-07T16:25:22;6.03;;;2.90;;
48845;SDS011;34665;51.886;5.436;2022-12-07T16:27:47;6.15;;;2.22;;
48845;SDS011;34665;51.886;5.436;2022-12-07T16:30:14;5.20;;;2.05;;
48845;SDS011;34665;51.886;5.436;2022-12-07T16:32:41;11.27;;;3.60;;
48845;SDS011;34665;51.886;5.436;2022-12-07T16:35:07;9.77;;;2.58;;
48845;SDS011;34665;51.886;5.436;2022-12-07T16:37:33;17.10;;;3.53;;
48845;SDS011;34665;51.886;5.436;2022-12-07T16:39:59;17.47;;;4.07;;
48845;SDS011;34665;51.886;5.436;2022-12-07T16:42:25;12.43;;;4.47;;
48845;SDS011;34665;51.886;5.436;2022-12-07T16:44:51;7.68;;;3.17;;